Time;durP1;ratioP1;P1;durP2;ratioP2;P2;SDS_P1;SDS_P2;PMS_P1;PMS_P2;Temp;Humidity;BMP_temperature;BMP_pressure;BME280_temperature;BME280_humidity;BME280_pressure;Samples;Min_cycle;Max_cycle;Signal;HPM_P1;HPM_P2
2023/05/17 00:01:02;;;;;;;;;2.75;2.75;;;;;;;;4978025;28;45448;-68
2023/05/17 00:03:27;;;;;;;;;4.00;3.00;;;;;;;;4977313;28;45386;-69
2023/05/17 00:05:52;;;;;;;;;2.50;2.50;;;;;;;;4977197;28;46351;-68
2023/05/17 00:08:17;;;;;;;;;4.25;3.00;;;;;;;;4977400;28;45344;-69
2023/05/17 00:10:43;;;;;;;;;5.00;4.00;;;;;;;;4977646;28;45300;-68
2023/05/17 00:13:08;;;;;;;;;6.25;3.75;;;;;;;;4976054;28;45504;-69
2023/05/17 00:15:33;;;;;;;;;3.75;3.75;;;;;;;;4976129;28;47296;-69
2023/05/17 00:17:58;;;;;;;;;3.75;3.00;;;;;;;;4977616;28;45345;-69
2023/05/17 00:20:23;;;;;;;;;3.75;3.75;;;;;;;;4977132;28;45388;-70
2023/05/17 00:22:49;;;;;;;;;4.00;3.00;;;;;;;;4986674;28;45409;-69
2023/05/17 00:25:14;;;;;;;;;4.00;3.00;;;;;;;;4996536;28;47070;-69
2023/05/17 00:27:39;;;;;;;;;3.25;1.75;;;;;;;;4993239;28;45328;-70
2023/05/17 00:30:05;;;;;;;;;3.00;3.00;;;;;;;;4977364;28;45348;-70
2023/05/17 00:32:30;;;;;;;;;1.50;1.50;;;;;;;;4977275;28;45694;-70
2023/05/17 00:34:55;;;;;;;;;4.50;3.50;;;;;;;;4976957;28;46426;-69
2023/05/17 00:37:20;;;;;;;;;3.00;3.00;;;;;;;;4977253;28;45357;-69
2023/05/17 00:39:46;;;;;;;;;3.50;3.50;;;;;;;;4959475;28;45477;-69
2023/05/17 00:42:11;;;;;;;;;3.50;3.50;;;;;;;;4976255;28;45420;-69
2023/05/17 00:44:36;;;;;;;;;2.25;2.00;;;;;;;;4976988;28;45735;-69
2023/05/17 00:47:02;;;;;;;;;2.50;2.50;;;;;;;;4975829;28;45649;-69
2023/05/17 00:49:27;;;;;;;;;3.75;3.00;;;;;;;;4976769;28;45480;-69
2023/05/17 00:51:53;;;;;;;;;3.50;3.50;;;;;;;;4976901;28;45340;-69
2023/05/17 00:54:18;;;;;;;;;2.00;2.00;;;;;;;;4976542;28;46147;-69
2023/05/17 00:56:43;;;;;;;;;3.25;2.50;;;;;;;;4976798;28;45473;-69
2023/05/17 00:59:09;;;;;;;;;2.50;2.50;;;;;;;;4976361;28;45535;-69
2023/05/17 01:01:35;;;;;;;;;3.00;3.00;;;;;;;;4976297;28;45483;-69
2023/05/17 01:04:01;;;;;;;;;2.25;2.25;;;;;;;;4976086;28;47203;-70
2023/05/17 01:06:26;;;;;;;;;6.50;5.00;;;;;;;;4976402;28;45312;-70
2023/05/17 01:08:51;;;;;;;;;6.75;5.50;;;;;;;;4976564;28;45785;-70
2023/05/17 01:11:35;;;;;;;;;5.50;5.50;;;;;;;;4976498;28;45412;-70
2023/05/17 01:14:13;;;;;;;;;2.50;2.50;;;;;;;;4956638;28;46342;-70
2023/05/17 01:16:41;;;;;;;;;4.00;2.75;;;;;;;;4956636;28;45451;-70
2023/05/17 01:19:24;;;;;;;;;6.75;3.00;;;;;;;;4956550;28;45397;-70
2023/05/17 01:21:59;;;;;;;;;4.75;3.00;;;;;;;;4960026;28;45342;-70
2023/05/17 01:24:27;;;;;;;;;4.00;3.50;;;;;;;;4985495;28;47267;-70
2023/05/17 01:26:53;;;;;;;;;5.00;4.50;;;;;;;;4976121;28;45598;-70
2023/05/17 01:29:21;;;;;;;;;5.00;5.00;;;;;;;;4974918;28;45348;-69
2023/05/17 01:31:48;;;;;;;;;4.25;4.25;;;;;;;;4976253;28;45359;-69
2023/05/17 01:34:13;;;;;;;;;4.00;2.75;;;;;;;;4975782;28;47163;-69
2023/05/17 01:36:38;;;;;;;;;4.25;3.50;;;;;;;;4976236;28;45361;-70
2023/05/17 01:39:03;;;;;;;;;4.00;4.00;;;;;;;;4976069;28;45381;-69
2023/05/17 01:41:35;;;;;;;;;2.50;2.25;;;;;;;;4976276;28;45429;-69
2023/05/17 01:44:06;;;;;;;;;7.75;4.75;;;;;;;;4976178;28;47498;-69
2023/05/17 01:46:37;;;;;;;;;5.75;3.50;;;;;;;;4976039;28;45443;-69
2023/05/17 01:49:02;;;;;;;;;4.25;4.00;;;;;;;;4974511;28;45353;-69
2023/05/17 01:51:32;;;;;;;;;4.00;3.00;;;;;;;;4976202;28;45456;-69
2023/05/17 01:54:01;;;;;;;;;7.50;5.75;;;;;;;;4974676;28;46044;-69
2023/05/17 01:56:27;;;;;;;;;5.00;5.00;;;;;;;;4975832;28;45322;-69
2023/05/17 01:58:53;;;;;;;;;6.00;5.75;;;;;;;;4975435;28;45321;-69
2023/05/17 02:01:20;;;;;;;;;7.25;6.50;;;;;;;;4975285;28;45457;-69
2023/05/17 02:03:47;;;;;;;;;6.00;6.00;;;;;;;;4974951;28;45657;-69
2023/05/17 02:06:12;;;;;;;;;6.50;6.50;;;;;;;;4975192;28;45500;-69
2023/05/17 02:08:37;;;;;;;;;5.50;5.50;;;;;;;;4975547;28;45478;-69
2023/05/17 02:11:02;;;;;;;;;8.00;5.00;;;;;;;;4975402;28;45370;-70
2023/05/17 02:13:28;;;;;;;;;10.00;6.00;;;;;;;;4975280;28;45605;-69
2023/05/17 02:15:53;;;;;;;;;7.00;7.00;;;;;;;;4975438;28;45511;-69
2023/05/17 02:18:20;;;;;;;;;7.50;7.00;;;;;;;;4975716;28;45410;-69
2023/05/17 02:20:46;;;;;;;;;8.00;8.00;;;;;;;;4972592;28;45515;-69
2023/05/17 02:23:11;;;;;;;;;7.25;7.00;;;;;;;;4987031;28;46504;-69
2023/05/17 02:25:36;;;;;;;;;6.50;6.50;;;;;;;;4976134;28;45413;-70
2023/05/17 02:28:01;;;;;;;;;7.25;6.00;;;;;;;;4975191;28;45456;-69
2023/05/17 02:30:26;;;;;;;;;7.75;7.00;;;;;;;;4964375;28;45318;-69
2023/05/17 02:32:52;;;;;;;;;8.25;7.00;;;;;;;;4955576;28;45603;-69
2023/05/17 02:35:17;;;;;;;;;10.25;9.00;;;;;;;;4959902;28;45394;-70
2023/05/17 02:37:42;;;;;;;;;11.50;8.00;;;;;;;;4974706;28;45330;-70
2023/05/17 02:40:08;;;;;;;;;9.25;7.00;;;;;;;;4974009;28;45353;-69
2023/05/17 02:42:37;;;;;;;;;9.50;7.50;;;;;;;;4974997;28;46275;-70
2023/05/17 02:45:02;;;;;;;;;8.25;8.25;;;;;;;;4975377;28;45360;-69
2023/05/17 02:47:27;;;;;;;;;14.50;10.50;;;;;;;;4974814;28;45450;-70
2023/05/17 02:49:52;;;;;;;;;11.25;7.25;;;;;;;;4975304;28;45388;-70
2023/05/17 02:52:18;;;;;;;;;8.00;5.50;;;;;;;;4974822;28;45731;-70
2023/05/17 02:54:43;;;;;;;;;14.25;11.25;;;;;;;;4974756;28;45567;-70
2023/05/17 02:57:09;;;;;;;;;8.25;8.00;;;;;;;;4975178;28;45368;-70
2023/05/17 02:59:34;;;;;;;;;9.75;6.75;;;;;;;;4974828;28;45401;-70
2023/05/17 03:01:59;;;;;;;;;9.50;8.00;;;;;;;;4975015;28;45395;-70
2023/05/17 03:04:24;;;;;;;;;5.25;5.25;;;;;;;;4975382;28;45585;-69
2023/05/17 03:06:50;;;;;;;;;7.75;7.75;;;;;;;;4978375;28;45404;-70
2023/05/17 03:09:15;;;;;;;;;6.75;6.75;;;;;;;;4978812;28;45392;-69
2023/05/17 03:11:40;;;;;;;;;9.25;8.00;;;;;;;;4978464;28;45404;-69
2023/05/17 03:14:05;;;;;;;;;7.75;6.50;;;;;;;;4978262;28;45472;-69
2023/05/17 03:16:31;;;;;;;;;9.25;9.00;;;;;;;;4978428;28;45527;-70
2023/05/17 03:18:56;;;;;;;;;7.75;7.75;;;;;;;;4978296;28;45437;-70
2023/05/17 03:21:21;;;;;;;;;6.50;6.50;;;;;;;;4978326;28;47470;-70
2023/05/17 03:23:46;;;;;;;;;10.00;10.00;;;;;;;;4995456;28;45274;-69
2023/05/17 03:26:11;;;;;;;;;13.25;10.00;;;;;;;;4996515;28;45353;-70
2023/05/17 03:28:36;;;;;;;;;12.00;8.75;;;;;;;;4997514;28;45386;-70
2023/05/17 03:31:02;;;;;;;;;8.00;8.00;;;;;;;;4978019;28;46257;-70
2023/05/17 03:33:27;;;;;;;;;6.75;6.75;;;;;;;;4977723;28;45428;-69
2023/05/17 03:35:52;;;;;;;;;13.75;10.25;;;;;;;;4978283;28;45357;-70
2023/05/17 03:38:17;;;;;;;;;9.00;8.00;;;;;;;;4977318;28;45328;-70
2023/05/17 03:40:42;;;;;;;;;10.50;9.00;;;;;;;;4977994;28;45465;-70
2023/05/17 03:43:08;;;;;;;;;6.25;6.25;;;;;;;;4977713;28;45358;-70
2023/05/17 03:45:33;;;;;;;;;9.00;7.50;;;;;;;;4978311;28;45499;-70
2023/05/17 03:47:58;;;;;;;;;6.50;6.50;;;;;;;;4978173;28;45377;-70
2023/05/17 03:50:23;;;;;;;;;12.50;9.75;;;;;;;;4977446;28;46306;-70
2023/05/17 03:52:49;;;;;;;;;12.25;8.00;;;;;;;;4977294;28;45480;-70
2023/05/17 03:55:14;;;;;;;;;12.25;8.50;;;;;;;;4977816;28;45322;-71
2023/05/17 03:57:39;;;;;;;;;7.75;7.50;;;;;;;;4977415;28;45425;-70
2023/05/17 04:00:11;;;;;;;;;6.25;6.25;;;;;;;;4977774;28;45415;-71
2023/05/17 04:02:36;;;;;;;;;13.50;9.50;;;;;;;;4977746;28;45404;-71
2023/05/17 04:05:01;;;;;;;;;8.25;8.00;;;;;;;;4976470;28;45567;-71
2023/05/17 04:07:28;;;;;;;;;9.50;9.00;;;;;;;;4977476;28;45411;-71
2023/05/17 04:09:57;;;;;;;;;16.25;13.00;;;;;;;;4977341;28;46176;-71
2023/05/17 04:12:22;;;;;;;;;13.00;10.25;;;;;;;;4977429;28;45474;-70
2023/05/17 04:14:48;;;;;;;;;13.25;13.25;;;;;;;;4976367;28;45567;-70
2023/05/17 04:17:13;;;;;;;;;12.50;11.00;;;;;;;;4975334;28;45552;-70
2023/05/17 04:19:38;;;;;;;;;12.25;12.25;;;;;;;;4977305;28;47443;-70
2023/05/17 04:22:03;;;;;;;;;7.75;7.00;;;;;;;;4980480;28;45429;-70
2023/05/17 04:24:28;;;;;;;;;8.50;8.00;;;;;;;;4997199;28;45480;-71
2023/05/17 04:26:54;;;;;;;;;10.50;8.75;;;;;;;;4996869;28;45403;-69
2023/05/17 04:29:20;;;;;;;;;10.75;10.75;;;;;;;;4979514;28;46683;-70
2023/05/17 04:31:47;;;;;;;;;9.00;7.50;;;;;;;;4977083;28;45441;-70
2023/05/17 04:34:13;;;;;;;;;5.75;5.00;;;;;;;;4977137;28;45450;-70
2023/05/17 04:36:38;;;;;;;;;9.50;8.00;;;;;;;;4977370;28;45465;-70
2023/05/17 04:39:03;;;;;;;;;7.75;7.75;;;;;;;;4977156;28;45585;-70
2023/05/17 04:41:30;;;;;;;;;11.50;11.50;;;;;;;;4976736;28;45545;-70
2023/05/17 04:43:55;;;;;;;;;12.75;9.25;;;;;;;;4977191;28;45382;-70
2023/05/17 04:46:20;;;;;;;;;12.75;10.25;;;;;;;;4977279;28;45392;-71
2023/05/17 04:48:45;;;;;;;;;11.50;11.50;;;;;;;;4977096;28;45427;-70
2023/05/17 04:51:11;;;;;;;;;12.50;9.25;;;;;;;;4977080;28;45732;-70
2023/05/17 04:53:36;;;;;;;;;17.25;11.00;;;;;;;;4959289;28;45592;-69
2023/05/17 04:56:02;;;;;;;;;13.00;10.50;;;;;;;;4976607;28;45400;-69
2023/05/17 04:58:28;;;;;;;;;9.75;9.50;;;;;;;;4966964;28;47090;-69
2023/05/17 05:00:53;;;;;;;;;11.75;9.50;;;;;;;;4957218;28;45425;-69
2023/05/17 05:03:18;;;;;;;;;12.50;10.50;;;;;;;;4957303;28;45393;-69
2023/05/17 05:05:43;;;;;;;;;11.00;11.00;;;;;;;;4975112;28;45533;-68
2023/05/17 05:08:09;;;;;;;;;14.00;14.00;;;;;;;;4976368;28;45423;-69
2023/05/17 05:10:34;;;;;;;;;12.50;12.00;;;;;;;;4975179;28;45510;-69
2023/05/17 05:12:59;;;;;;;;;14.00;11.00;;;;;;;;4973433;28;45392;-70
2023/05/17 05:15:25;;;;;;;;;13.25;12.50;;;;;;;;4976399;28;45490;-70
2023/05/17 05:17:50;;;;;;;;;10.75;10.50;;;;;;;;4976048;28;46186;-70
2023/05/17 05:20:15;;;;;;;;;11.25;9.50;;;;;;;;4976447;28;45408;-69
2023/05/17 05:22:40;;;;;;;;;17.50;14.25;;;;;;;;4984714;28;45473;-69
2023/05/17 05:25:06;;;;;;;;;11.00;11.00;;;;;;;;4995454;28;45430;-69
2023/05/17 05:27:31;;;;;;;;;12.25;12.25;;;;;;;;4993489;28;45883;-69
2023/05/17 05:29:57;;;;;;;;;15.75;12.25;;;;;;;;4976307;28;45381;-72
2023/05/17 05:32:22;;;;;;;;;17.00;14.50;;;;;;;;4976711;28;45456;-72
2023/05/17 05:34:47;;;;;;;;;12.00;10.00;;;;;;;;4975894;28;45385;-70
2023/05/17 05:37:12;;;;;;;;;15.75;13.00;;;;;;;;4977368;28;46432;-70
2023/05/17 05:39:37;;;;;;;;;11.00;10.00;;;;;;;;4975365;28;45260;-68
2023/05/17 05:42:03;;;;;;;;;14.25;12.00;;;;;;;;4974954;28;45341;-68
2023/05/17 05:44:28;;;;;;;;;11.50;11.00;;;;;;;;4976426;28;45363;-69
2023/05/17 05:46:54;;;;;;;;;12.75;9.50;;;;;;;;4976053;28;47083;-69
2023/05/17 05:49:19;;;;;;;;;10.00;9.50;;;;;;;;4975873;28;45362;-69
2023/05/17 05:51:44;;;;;;;;;14.75;13.00;;;;;;;;4976053;28;45382;-68
2023/05/17 05:54:10;;;;;;;;;11.50;10.50;;;;;;;;4975664;28;45572;-69
2023/05/17 05:56:35;;;;;;;;;11.50;10.25;;;;;;;;4976047;28;46316;-69
2023/05/17 05:59:00;;;;;;;;;12.00;10.25;;;;;;;;4975918;28;45310;-69
2023/05/17 06:01:26;;;;;;;;;13.50;11.75;;;;;;;;4976004;28;45281;-69
2023/05/17 06:03:51;;;;;;;;;14.25;14.25;;;;;;;;4974677;28;45377;-68
2023/05/17 06:06:18;;;;;;;;;17.00;14.25;;;;;;;;4975227;28;46067;-69
2023/05/17 06:08:44;;;;;;;;;15.50;14.00;;;;;;;;4973947;28;45388;-68
2023/05/17 06:11:09;;;;;;;;;14.75;11.75;;;;;;;;4974732;28;45518;-68
2023/05/17 06:13:34;;;;;;;;;12.50;11.00;;;;;;;;4974470;28;45590;-68
2023/05/17 06:16:00;;;;;;;;;13.50;12.00;;;;;;;;4974618;28;46119;-68
2023/05/17 06:18:25;;;;;;;;;7.25;6.00;;;;;;;;4974753;28;45538;-68
2023/05/17 06:20:50;;;;;;;;;15.75;13.25;;;;;;;;4975723;28;45314;-68
2023/05/17 06:23:15;;;;;;;;;8.50;7.00;;;;;;;;4988452;28;45828;-68
2023/05/17 06:25:41;;;;;;;;;15.75;13.25;;;;;;;;4995071;28;47483;-68
2023/05/17 06:28:08;;;;;;;;;13.50;12.50;;;;;;;;4988455;28;45330;-69
2023/05/17 06:30:33;;;;;;;;;13.75;12.25;;;;;;;;4974273;28;45528;-69
2023/05/17 06:32:58;;;;;;;;;14.00;12.25;;;;;;;;4975686;28;45358;-68
2023/05/17 06:35:23;;;;;;;;;12.75;11.50;;;;;;;;4974845;28;46532;-69
2023/05/17 06:37:48;;;;;;;;;7.00;6.25;;;;;;;;4975222;28;45494;-68
2023/05/17 06:40:14;;;;;;;;;6.75;6.00;;;;;;;;4976503;28;45439;-69
2023/05/17 06:42:39;;;;;;;;;7.50;7.50;;;;;;;;4981876;28;45509;-68
2023/05/17 06:45:05;;;;;;;;;12.00;7.50;;;;;;;;4982023;28;46239;-68
2023/05/17 06:47:30;;;;;;;;;9.75;6.50;;;;;;;;4981878;28;45420;-69
2023/05/17 06:49:55;;;;;;;;;11.50;9.75;;;;;;;;4981751;28;45423;-69
2023/05/17 06:52:21;;;;;;;;;9.00;8.00;;;;;;;;4981941;28;45436;-69
2023/05/17 06:54:46;;;;;;;;;13.25;10.00;;;;;;;;4981397;28;46978;-69
2023/05/17 06:57:11;;;;;;;;;15.50;13.75;;;;;;;;4981167;28;45546;-69
2023/05/17 06:59:36;;;;;;;;;8.75;8.75;;;;;;;;4981875;28;45351;-67
2023/05/17 07:02:02;;;;;;;;;9.50;9.25;;;;;;;;4981479;28;45417;-69
2023/05/17 07:04:27;;;;;;;;;7.50;7.50;;;;;;;;4981651;28;46878;-70
2023/05/17 07:06:53;;;;;;;;;3.25;3.25;;;;;;;;4981386;28;45439;-68
2023/05/17 07:09:19;;;;;;;;;7.75;6.00;;;;;;;;4981363;28;45454;-69
2023/05/17 07:11:44;;;;;;;;;7.50;6.50;;;;;;;;4981635;28;45553;-69
2023/05/17 07:14:09;;;;;;;;;7.25;7.25;;;;;;;;4981204;28;45919;-69
2023/05/17 07:16:35;;;;;;;;;5.50;5.50;;;;;;;;4979992;28;45415;-69
2023/05/17 07:19:00;;;;;;;;;7.25;5.50;;;;;;;;4981519;28;45440;-69
2023/05/17 07:21:25;;;;;;;;;7.00;7.00;;;;;;;;4981052;28;45372;-69
2023/05/17 07:23:50;;;;;;;;;6.00;6.00;;;;;;;;4999066;28;46035;-69
2023/05/17 07:26:19;;;;;;;;;8.25;5.00;;;;;;;;5001063;28;45666;-68
2023/05/17 07:28:44;;;;;;;;;8.50;7.25;;;;;;;;4999907;28;45317;-69
2023/05/17 07:31:10;;;;;;;;;7.75;6.25;;;;;;;;4981184;28;45357;-68
2023/05/17 07:33:35;;;;;;;;;6.25;6.25;;;;;;;;4980405;28;46139;-69
2023/05/17 07:36:01;;;;;;;;;7.25;7.00;;;;;;;;4981396;28;45326;-69
2023/05/17 07:38:26;;;;;;;;;7.00;6.50;;;;;;;;4981506;28;45497;-68
2023/05/17 07:40:51;;;;;;;;;5.25;5.00;;;;;;;;4981357;28;45424;-68
2023/05/17 07:43:16;;;;;;;;;7.25;6.50;;;;;;;;4980802;28;46011;-69
2023/05/17 07:45:42;;;;;;;;;5.00;5.00;;;;;;;;4981481;28;45541;-69
2023/05/17 07:48:07;;;;;;;;;7.50;6.25;;;;;;;;4980844;28;45497;-68
2023/05/17 07:50:32;;;;;;;;;4.50;4.50;;;;;;;;4981334;28;45357;-69
2023/05/17 07:52:58;;;;;;;;;5.75;5.25;;;;;;;;4975652;28;48113;-68
2023/05/17 07:55:23;;;;;;;;;5.00;5.00;;;;;;;;4977690;28;45274;-69
2023/05/17 07:57:48;;;;;;;;;9.50;7.00;;;;;;;;4977916;28;45426;-69
2023/05/17 08:00:14;;;;;;;;;8.50;6.50;;;;;;;;4977761;28;45395;-69
2023/05/17 08:02:39;;;;;;;;;8.25;7.75;;;;;;;;4977430;28;45484;-68
2023/05/17 08:05:06;;;;;;;;;7.75;7.25;;;;;;;;4977517;28;45437;-69
2023/05/17 08:07:31;;;;;;;;;13.00;11.50;;;;;;;;4977404;28;45496;-68
2023/05/17 08:09:56;;;;;;;;;6.75;4.00;;;;;;;;4977561;28;45507;-68
2023/05/17 08:12:21;;;;;;;;;10.50;6.75;;;;;;;;4977377;28;46125;-68
2023/05/17 08:14:46;;;;;;;;;13.25;12.25;;;;;;;;4977171;28;45260;-69
2023/05/17 08:17:12;;;;;;;;;9.00;8.00;;;;;;;;4977613;28;45380;-68
2023/05/17 08:19:37;;;;;;;;;12.00;10.00;;;;;;;;4976158;28;45239;-68
2023/05/17 08:22:03;;;;;;;;;9.75;8.25;;;;;;;;4980570;28;46072;-68
2023/05/17 08:24:28;;;;;;;;;7.00;5.50;;;;;;;;4986880;28;45522;-70
2023/05/17 08:26:53;;;;;;;;;9.75;7.00;;;;;;;;4977562;28;45449;-69
2023/05/17 08:29:18;;;;;;;;;4.00;4.00;;;;;;;;4977479;28;45410;-68
2023/05/17 08:31:44;;;;;;;;;2.75;2.00;;;;;;;;4976826;28;45590;-69
2023/05/17 08:34:09;;;;;;;;;4.75;4.75;;;;;;;;4977290;28;45536;-69
2023/05/17 08:36:34;;;;;;;;;5.25;5.00;;;;;;;;4977285;28;45442;-68
2023/05/17 08:38:59;;;;;;;;;6.50;5.25;;;;;;;;4977297;28;45369;-69
2023/05/17 08:41:25;;;;;;;;;5.00;4.00;;;;;;;;4976866;28;45710;-69
2023/05/17 08:43:50;;;;;;;;;4.00;4.00;;;;;;;;4975880;28;45449;-69
2023/05/17 08:46:17;;;;;;;;;5.00;5.00;;;;;;;;4975989;28;45503;-69
2023/05/17 08:48:43;;;;;;;;;6.50;5.50;;;;;;;;4975862;28;45466;-69
2023/05/17 08:51:11;;;;;;;;;5.25;5.25;;;;;;;;4976645;28;46413;-69
2023/05/17 08:53:37;;;;;;;;;5.00;5.00;;;;;;;;4976412;28;45325;-69
2023/05/17 08:56:03;;;;;;;;;5.00;5.00;;;;;;;;4976883;28;45288;-69
2023/05/17 08:58:32;;;;;;;;;2.25;2.00;;;;;;;;4976993;28;45475;-69
2023/05/17 09:00:58;;;;;;;;;5.50;5.50;;;;;;;;4975996;28;47158;-69
2023/05/17 09:03:24;;;;;;;;;3.25;3.25;;;;;;;;4976221;28;45436;-69
2023/05/17 09:05:51;;;;;;;;;3.25;2.25;;;;;;;;4976782;28;45363;-69
2023/05/17 09:08:16;;;;;;;;;6.25;4.00;;;;;;;;4976343;28;45468;-69
2023/05/17 09:10:42;;;;;;;;;4.50;3.75;;;;;;;;4976452;28;45896;-68
2023/05/17 09:13:13;;;;;;;;;4.25;4.25;;;;;;;;4961269;28;45419;-69
2023/05/17 09:15:43;;;;;;;;;3.00;3.00;;;;;;;;4957166;28;45454;-69
2023/05/17 09:18:10;;;;;;;;;4.25;4.00;;;;;;;;4956720;28;45388;-69
2023/05/17 09:20:35;;;;;;;;;2.50;2.50;;;;;;;;4956898;28;46093;-69
2023/05/17 09:23:04;;;;;;;;;5.25;4.00;;;;;;;;4978451;28;45306;-69
2023/05/17 09:25:30;;;;;;;;;2.00;2.00;;;;;;;;4996202;28;45415;-68
2023/05/17 09:27:59;;;;;;;;;5.50;3.75;;;;;;;;4996153;28;45536;-68
2023/05/17 09:30:29;;;;;;;;;4.00;1.75;;;;;;;;4980773;28;45533;-69
2023/05/17 09:32:54;;;;;;;;;3.25;3.25;;;;;;;;4975871;28;45464;-69
2023/05/17 09:35:26;;;;;;;;;4.00;2.50;;;;;;;;4975040;28;45432;-69
2023/05/17 09:37:51;;;;;;;;;2.00;2.00;;;;;;;;4976551;28;45533;-68
2023/05/17 09:40:26;;;;;;;;;1.50;1.50;;;;;;;;4975410;28;46352;-69
2023/05/17 09:42:51;;;;;;;;;1.75;1.75;;;;;;;;4976187;28;45684;-69
2023/05/17 09:45:25;;;;;;;;;1.50;1.50;;;;;;;;4976101;28;45305;-69
2023/05/17 09:47:51;;;;;;;;;3.00;3.00;;;;;;;;4976313;28;45396;-67
2023/05/17 09:50:17;;;;;;;;;4.25;3.00;;;;;;;;4976280;28;47272;-70
2023/05/17 09:52:42;;;;;;;;;3.00;1.50;;;;;;;;4975282;28;45409;-69
2023/05/17 09:55:08;;;;;;;;;2.00;2.00;;;;;;;;4974800;28;45382;-70
2023/05/17 09:57:37;;;;;;;;;2.00;2.00;;;;;;;;4958147;28;45439;-69
2023/05/17 10:00:08;;;;;;;;;0.75;0.00;;;;;;;;4975667;28;47121;-70
2023/05/17 10:02:35;;;;;;;;;4.00;3.00;;;;;;;;4975494;28;45436;-70
2023/05/17 10:05:04;;;;;;;;;1.50;1.50;;;;;;;;4976064;28;45653;-69
2023/05/17 10:07:30;;;;;;;;;0.75;0.75;;;;;;;;4975651;28;45553;-69
2023/05/17 10:09:56;;;;;;;;;3.00;2.00;;;;;;;;4975438;28;45382;-69
2023/05/17 10:12:22;;;;;;;;;3.00;2.00;;;;;;;;4975715;28;45381;-70
2023/05/17 10:14:47;;;;;;;;;1.75;1.75;;;;;;;;4974743;28;45501;-68
2023/05/17 10:17:13;;;;;;;;;1.25;1.00;;;;;;;;4975962;28;45409;-69
2023/05/17 10:19:39;;;;;;;;;2.25;1.00;;;;;;;;4974081;28;47355;-68
2023/05/17 10:22:05;;;;;;;;;1.00;1.00;;;;;;;;4978684;28;45412;-67
2023/05/17 10:24:30;;;;;;;;;2.00;1.25;;;;;;;;4995369;28;45396;-67
2023/05/17 10:26:56;;;;;;;;;1.75;1.00;;;;;;;;4995368;28;45371;-67
2023/05/17 10:29:22;;;;;;;;;0.25;0.25;;;;;;;;4994854;28;45430;-68
2023/05/17 10:31:49;;;;;;;;;1.50;1.50;;;;;;;;4995510;28;45338;-68
2023/05/17 10:34:15;;;;;;;;;2.50;1.00;;;;;;;;4987043;28;46168;-68
2023/05/17 10:36:42;;;;;;;;;2.25;1.25;;;;;;;;4975758;28;45311;-69
2023/05/17 10:39:07;;;;;;;;;3.75;1.75;;;;;;;;4975467;28;45503;-68
2023/05/17 10:41:33;;;;;;;;;1.00;1.00;;;;;;;;4974773;28;45531;-68
2023/05/17 10:44:00;;;;;;;;;1.75;1.75;;;;;;;;4975705;28;45440;-68
2023/05/17 10:46:28;;;;;;;;;1.00;1.00;;;;;;;;4975567;28;45436;-68
2023/05/17 10:48:54;;;;;;;;;0.75;0.75;;;;;;;;4975078;28;46533;-68
2023/05/17 10:51:23;;;;;;;;;2.75;2.00;;;;;;;;4975250;28;45314;-68
2023/05/17 10:54:11;;;;;;;;;2.00;2.00;;;;;;;;4975616;28;45333;-67
2023/05/17 10:56:41;;;;;;;;;0.00;0.00;;;;;;;;4974897;28;45267;-69
2023/05/17 10:59:23;;;;;;;;;1.00;1.00;;;;;;;;4975276;28;45496;-69
2023/05/17 11:02:03;;;;;;;;;1.00;1.00;;;;;;;;4955571;28;45405;-69
2023/05/17 11:04:33;;;;;;;;;1.33;1.33;;;;;;;;4956098;28;45345;-69
2023/05/17 11:07:28;;;;;;;;;0.25;0.25;;;;;;;;4954404;28;45421;-69
2023/05/17 11:09:54;;;;;;;;;0.00;0.00;;;;;;;;4955225;28;47248;-68
2023/05/17 11:12:30;;;;;;;;;1.00;1.00;;;;;;;;4974132;28;45429;-68
2023/05/17 11:14:56;;;;;;;;;1.00;1.00;;;;;;;;4964119;28;45447;-68
2023/05/17 11:17:33;;;;;;;;;2.00;2.00;;;;;;;;4974310;28;45535;-68
2023/05/17 11:20:08;;;;;;;;;2.00;2.00;;;;;;;;4974414;28;47176;-68
2023/05/17 11:22:38;;;;;;;;;1.75;0.25;;;;;;;;4975597;28;45444;-67
2023/05/17 11:25:11;;;;;;;;;1.00;1.00;;;;;;;;4974770;28;45445;-69
2023/05/17 11:27:43;;;;;;;;;2.00;2.00;;;;;;;;4977328;28;45341;-69
2023/05/17 11:30:09;;;;;;;;;1.00;1.00;;;;;;;;4978219;28;46263;-69
2023/05/17 11:32:35;;;;;;;;;1.00;1.00;;;;;;;;4978430;28;45372;-70
2023/05/17 11:35:00;;;;;;;;;2.25;1.25;;;;;;;;4978204;28;45424;-73
2023/05/17 11:37:26;;;;;;;;;0.50;0.50;;;;;;;;4977041;28;45541;-70
2023/05/17 11:40:00;;;;;;;;;1.75;0.00;;;;;;;;4977889;28;45999;-71
2023/05/17 11:42:25;;;;;;;;;1.00;1.00;;;;;;;;4977587;28;45677;-70
2023/05/17 11:44:55;;;;;;;;;1.00;1.00;;;;;;;;4972594;28;45330;-70
2023/05/17 11:47:20;;;;;;;;;2.00;0.00;;;;;;;;4978082;28;45310;-70
2023/05/17 11:49:50;;;;;;;;;1.00;1.00;;;;;;;;4977510;28;46230;-69
2023/05/17 11:52:15;;;;;;;;;2.25;2.00;;;;;;;;4977241;28;45373;-69
2023/05/17 11:54:41;;;;;;;;;1.50;1.50;;;;;;;;4977890;28;45412;-69
2023/05/17 11:57:07;;;;;;;;;1.00;1.00;;;;;;;;4978307;28;45513;-69
2023/05/17 11:59:36;;;;;;;;;3.00;0.00;;;;;;;;4977642;28;45504;-69
2023/05/17 12:02:01;;;;;;;;;2.00;1.00;;;;;;;;4976570;28;46180;-70
2023/05/17 12:04:26;;;;;;;;;1.00;1.00;;;;;;;;4976651;28;45484;-69
2023/05/17 12:06:53;;;;;;;;;2.00;0.00;;;;;;;;4977783;28;45493;-70
2023/05/17 12:09:18;;;;;;;;;0.00;0.00;;;;;;;;4977552;28;47300;-69
2023/05/17 12:11:43;;;;;;;;;1.00;1.00;;;;;;;;4977795;28;45489;-69
2023/05/17 12:14:09;;;;;;;;;2.50;1.75;;;;;;;;4977744;28;45376;-69
2023/05/17 12:16:40;;;;;;;;;1.00;1.00;;;;;;;;4977602;28;45348;-69
2023/05/17 12:19:15;;;;;;;;;0.25;0.25;;;;;;;;4977447;28;45836;-69
2023/05/17 12:21:40;;;;;;;;;0.00;0.00;;;;;;;;4976526;28;45374;-70
2023/05/17 12:24:05;;;;;;;;;0.25;0.25;;;;;;;;4997087;28;45410;-69
2023/05/17 12:26:31;;;;;;;;;1.00;1.00;;;;;;;;4997377;28;45294;-69
2023/05/17 12:28:57;;;;;;;;;0.00;0.00;;;;;;;;4981006;28;48389;-69
2023/05/17 12:31:37;;;;;;;;;0.50;0.50;;;;;;;;4977543;28;45567;-69
2023/05/17 12:34:04;;;;;;;;;0.75;0.75;;;;;;;;4977183;28;45507;-69
2023/05/17 12:36:30;;;;;;;;;1.00;1.00;;;;;;;;4977432;28;45309;-70
2023/05/17 12:38:56;;;;;;;;;1.00;1.00;;;;;;;;4976258;28;46261;-69
2023/05/17 12:41:22;;;;;;;;;1.00;1.00;;;;;;;;4976918;28;45282;-70
2023/05/17 12:43:48;;;;;;;;;1.00;1.00;;;;;;;;4977575;28;45369;-69
2023/05/17 12:46:17;;;;;;;;;0.00;0.00;;;;;;;;4977431;28;45440;-70
2023/05/17 12:48:43;;;;;;;;;0.75;0.75;;;;;;;;4976910;28;45332;-70
2023/05/17 12:51:08;;;;;;;;;2.00;1.00;;;;;;;;4977039;28;45327;-69
2023/05/17 12:53:35;;;;;;;;;0.00;0.00;;;;;;;;4977071;28;45396;-70
2023/05/17 12:56:00;;;;;;;;;1.50;1.00;;;;;;;;4977226;28;45509;-69
2023/05/17 12:58:25;;;;;;;;;2.00;1.00;;;;;;;;4976706;28;45548;-70
2023/05/17 13:01:17;;;;;;;;;4.50;0.50;;;;;;;;4977265;28;45583;-70
2023/05/17 13:03:48;;;;;;;;;2.00;2.00;;;;;;;;4977010;28;45330;-69
2023/05/17 13:06:14;;;;;;;;;2.00;1.00;;;;;;;;4977052;28;45369;-71
2023/05/17 13:08:39;;;;;;;;;0.75;0.75;;;;;;;;4976673;28;47022;-69
2023/05/17 13:11:14;;;;;;;;;2.00;2.00;;;;;;;;4975580;28;45485;-69
2023/05/17 13:13:39;;;;;;;;;2.25;0.50;;;;;;;;4976699;28;45366;-69
2023/05/17 13:16:05;;;;;;;;;2.00;1.00;;;;;;;;4976898;28;45586;-69
2023/05/17 13:18:34;;;;;;;;;1.00;1.00;;;;;;;;4976721;28;46202;-69
2023/05/17 13:20:59;;;;;;;;;1.00;0.25;;;;;;;;4976686;28;45597;-70
2023/05/17 13:23:24;;;;;;;;;0.50;0.50;;;;;;;;4991018;28;45366;-70
2023/05/17 13:25:50;;;;;;;;;1.00;1.00;;;;;;;;4996272;28;45536;-68
2023/05/17 13:28:15;;;;;;;;;2.25;1.50;;;;;;;;4996301;28;45380;-69
2023/05/17 13:30:44;;;;;;;;;0.75;0.00;;;;;;;;4996208;28;45443;-69
2023/05/17 13:33:09;;;;;;;;;2.00;1.00;;;;;;;;4979748;28;45317;-70
2023/05/17 13:35:36;;;;;;;;;0.75;0.75;;;;;;;;4976410;28;45396;-69
2023/05/17 13:38:01;;;;;;;;;1.00;1.00;;;;;;;;4975968;28;45860;-70
2023/05/17 13:40:26;;;;;;;;;0.00;0.00;;;;;;;;4976483;28;45413;-69
2023/05/17 13:42:51;;;;;;;;;0.50;0.50;;;;;;;;4976317;28;45412;-69
2023/05/17 13:45:17;;;;;;;;;0.00;0.00;;;;;;;;4976283;28;45487;-70
2023/05/17 13:47:42;;;;;;;;;0.50;0.50;;;;;;;;4976321;28;45396;-69
2023/05/17 13:50:08;;;;;;;;;3.00;1.75;;;;;;;;4974996;28;45322;-69
2023/05/17 13:52:33;;;;;;;;;2.50;2.25;;;;;;;;4976465;28;45405;-69
2023/05/17 13:54:58;;;;;;;;;0.00;0.00;;;;;;;;4976151;28;45432;-69
2023/05/17 13:57:23;;;;;;;;;0.00;0.00;;;;;;;;4975785;28;46554;-69
2023/05/17 13:59:49;;;;;;;;;1.50;1.50;;;;;;;;4974974;28;45405;-69
2023/05/17 14:02:14;;;;;;;;;0.00;0.00;;;;;;;;4976171;28;45606;-69
2023/05/17 14:04:39;;;;;;;;;1.00;1.00;;;;;;;;4976279;28;45380;-69
2023/05/17 14:07:05;;;;;;;;;0.50;0.50;;;;;;;;4974631;28;47226;-69
2023/05/17 14:09:32;;;;;;;;;0.25;0.00;;;;;;;;4975803;28;45446;-69
2023/05/17 14:11:57;;;;;;;;;1.00;1.00;;;;;;;;4974819;28;45560;-69
2023/05/17 14:14:26;;;;;;;;;1.00;1.00;;;;;;;;4975826;28;45449;-69
2023/05/17 14:16:51;;;;;;;;;1.00;0.50;;;;;;;;4975762;28;45509;-69
2023/05/17 14:19:17;;;;;;;;;1.00;1.00;;;;;;;;4974244;28;45465;-68
2023/05/17 14:21:42;;;;;;;;;1.00;1.00;;;;;;;;4976389;28;45471;-68
2023/05/17 14:24:07;;;;;;;;;0.75;0.75;;;;;;;;4995272;28;45567;-69
2023/05/17 14:26:32;;;;;;;;;0.00;0.00;;;;;;;;4995484;28;45540;-69
2023/05/17 14:28:57;;;;;;;;;0.75;0.75;;;;;;;;4980264;28;45358;-68
2023/05/17 14:31:23;;;;;;;;;1.00;1.00;;;;;;;;4975935;28;45396;-68
2023/05/17 14:33:48;;;;;;;;;1.00;1.00;;;;;;;;4974061;28;45446;-69